You are not logged in, Click here to log in
尼斯藍色海岸機場NCE / LFMN 法國-尼斯
ICAO: LFMN Country: 法國-尼斯
Latitude: 43.6584 Longitude: 7.21587
Total Arrivals: 7 Total Departures: 5
Latest Arrival: FS9025 (LEPA-LFMN)Arthur. Kung Latest Departure: U21631 (LFMN-LIRF)Arthur. Kung
Scenery: https://zh.wikipedia.org/wiki/%E5%B0%BC%E6%96%AF%E8%93%9D%E8%89%B2%E6%B5%B7%E5%B2%B8%E6%9C%BA%E5%9C%BA
METAR : LFMN 240600Z 35004KT 9999 FEW066 14/10 Q1015 NOSIG

尼斯藍色海岸機場NCE

You are accessing this site from IP address 34.201.9.19. Virtual Airline. CMS by phpVMS.Website designed by Zumeweb and edited by Theo Bearman.
There is 0 User(s) Online: | and 18 Guest(s) Online.
All information on this site is for fight simulation purposes only. This site is for flight logging for pilots of Virtual Airline&模擬飛行論壇 FlySim only.